Time;durP1;ratioP1;P1;durP2;ratioP2;P2;SDS_P1;SDS_P2;PMS_P1;PMS_P2;Temp;Humidity;BMP_temperature;BMP_pressure;BME280_temperature;BME280_humidity;BME280_pressure;Samples;Min_cycle;Max_cycle;Signal;HPM_P1;HPM_P2
2022/06/24 00:00:18;;;;;;;12.83;4.37;;;;;;;17.79;70.79;100091.11;123487;1098;104370;-77
2022/06/24 00:03:07;;;;;;;7.83;4.23;;;;;;;17.77;71.00;100098.20;123652;1099;104281;-77
2022/06/24 00:05:39;;;;;;;7.33;4.07;;;;;;;17.76;70.84;100099.07;123314;1099;104275;-77
2022/06/24 00:08:11;;;;;;;8.40;4.00;;;;;;;17.75;70.47;100102.63;123476;1099;104306;-78
2022/06/24 00:10:43;;;;;;;10.00;4.23;;;;;;;17.72;70.67;100100.84;123519;1099;104274;-77
2022/06/24 00:13:15;;;;;;;7.27;3.97;;;;;;;17.71;70.74;100107.03;123497;1099;104277;-77
2022/06/24 00:15:46;;;;;;;8.80;4.20;;;;;;;17.72;70.59;100102.63;123590;1099;104271;-77
2022/06/24 00:18:20;;;;;;;8.53;4.27;;;;;;;17.72;70.50;100105.28;123517;1099;104367;-78
2022/06/24 00:20:52;;;;;;;9.77;4.53;;;;;;;17.72;70.53;100110.59;123439;1099;104364;-77
2022/06/24 00:23:25;;;;;;;7.03;3.90;;;;;;;17.72;70.81;100108.81;123484;1099;104323;-77
2022/06/24 00:25:56;;;;;;;9.43;4.60;;;;;;;17.74;70.64;100108.81;123478;1099;104347;-78
2022/06/24 00:28:28;;;;;;;8.03;4.07;;;;;;;17.73;70.74;100105.28;123525;1099;104399;-77
2022/06/24 00:31:02;;;;;;;9.40;4.13;;;;;;;17.76;70.64;100099.07;123546;1099;104386;-77
2022/06/24 00:33:37;;;;;;;5.73;3.73;;;;;;;17.78;70.66;100102.63;123514;1098;104370;-77
2022/06/24 00:36:10;;;;;;;6.93;4.20;;;;;;;17.79;70.37;100105.28;123557;1099;104252;-77
2022/06/24 00:38:42;;;;;;;8.45;3.90;;;;;;;17.83;70.40;100113.25;123481;1099;104422;-77
2022/06/24 00:41:15;;;;;;;6.60;3.90;;;;;;;17.85;70.07;100103.50;123507;1099;104278;-78
2022/06/24 00:43:50;;;;;;;6.13;4.27;;;;;;;17.86;70.54;100105.28;123492;1099;104271;-78
2022/06/24 00:46:28;;;;;;;7.37;4.10;;;;;;;17.86;70.18;100103.50;123605;1099;104747;-78
2022/06/24 00:49:01;;;;;;;6.80;4.20;;;;;;;17.86;70.34;100092.89;123526;1099;118905;-78
2022/06/24 00:51:36;;;;;;;7.03;4.20;;;;;;;17.87;70.48;100097.32;123615;1099;104402;-77
2022/06/24 00:54:12;;;;;;;8.10;4.23;;;;;;;17.86;70.41;100092.89;123646;1099;104344;-77
2022/06/24 00:56:45;;;;;;;8.40;4.27;;;;;;;17.87;70.10;100092.02;123546;1099;104284;-79
2022/06/24 00:59:16;;;;;;;6.45;4.20;;;;;;;17.88;69.88;100093.80;123743;1099;104274;-78
2022/06/24 01:01:51;;;;;;;8.27;3.87;;;;;;;17.86;70.00;100086.70;123479;1099;104258;-77
2022/06/24 01:04:31;;;;;;;6.50;4.10;;;;;;;17.86;69.98;100079.61;123201;1099;104354;-77
2022/06/24 01:07:04;;;;;;;9.95;4.35;;;;;;;17.86;69.84;100087.58;123511;1099;104357;-77
2022/06/24 01:09:35;;;;;;;10.83;4.20;;;;;;;17.86;69.83;100089.36;123487;1099;110597;-77
2022/06/24 01:12:09;;;;;;;9.55;4.00;;;;;;;17.85;69.58;100088.45;123532;1099;104396;-78
2022/06/24 01:14:41;;;;;;;10.20;4.10;;;;;;;17.84;69.54;100092.02;123594;1098;104361;-77
2022/06/24 01:17:13;;;;;;;6.90;4.07;;;;;;;17.84;69.44;100092.02;123487;1098;104386;-77
2022/06/24 01:19:45;;;;;;;7.80;4.10;;;;;;;17.83;69.82;100095.55;123479;1099;104286;-78
2022/06/24 01:22:22;;;;;;;11.20;4.10;;;;;;;17.82;69.63;100088.45;123489;1099;104325;-77
2022/06/24 01:24:54;;;;;;;9.50;4.13;;;;;;;17.81;69.86;100086.70;123564;1099;104271;-77
2022/06/24 01:27:26;;;;;;;5.53;3.97;;;;;;;17.81;69.70;100086.70;123502;1099;104331;-77
2022/06/24 01:29:58;;;;;;;10.50;4.07;;;;;;;17.81;69.04;100089.36;123462;1099;104395;-77
2022/06/24 01:32:29;;;;;;;9.40;4.30;;;;;;;17.82;69.53;100092.89;123565;1099;104305;-77
2022/06/24 01:35:01;;;;;;;6.60;3.87;;;;;;;17.82;69.63;100093.77;123518;1099;104310;-78
2022/06/24 01:37:34;;;;;;;10.90;4.23;;;;;;;17.83;69.76;100099.98;123542;1099;104271;-78
2022/06/24 01:40:07;;;;;;;5.97;3.80;;;;;;;17.83;69.72;100097.32;123537;1099;104320;-77
2022/06/24 01:42:40;;;;;;;6.17;3.90;;;;;;;17.84;69.22;100091.11;123512;1099;104501;-77
2022/06/24 01:45:13;;;;;;;5.90;3.87;;;;;;;17.84;69.77;100099.06;123582;1099;104374;-77
2022/06/24 01:47:45;;;;;;;8.03;4.10;;;;;;;17.84;69.64;100093.77;123558;1099;104174;-77
2022/06/24 01:50:17;;;;;;;7.80;4.00;;;;;;;17.85;69.76;100092.89;123498;1099;104265;-78
2022/06/24 01:52:48;;;;;;;7.43;3.90;;;;;;;17.84;69.61;100097.32;123517;1099;104323;-77
2022/06/24 01:55:20;;;;;;;6.97;3.93;;;;;;;17.82;69.32;100101.72;123522;1099;104361;-77
2022/06/24 01:57:52;;;;;;;10.87;3.90;;;;;;;17.80;69.64;100106.16;123504;1099;104268;-77
2022/06/24 02:00:24;;;;;;;8.10;3.90;;;;;;;17.76;69.59;100097.32;123449;1099;104345;-78
2022/06/24 02:02:56;;;;;;;9.70;4.63;;;;;;;17.70;69.56;100107.03;123529;1099;104351;-77
2022/06/24 02:05:28;;;;;;;5.47;3.90;;;;;;;17.65;69.84;100111.46;123303;1099;104816;-77
2022/06/24 02:08:00;;;;;;;6.90;3.95;;;;;;;17.59;70.11;100107.93;123478;1099;104226;-78
2022/06/24 02:13:30;;;;;;;7.20;4.10;;;;;;;17.54;70.37;100111.45;123515;1099;104277;-78
2022/06/24 02:16:04;;;;;;;8.40;4.60;;;;;;;17.53;70.46;100110.58;123567;1099;104255;-77
2022/06/24 02:18:36;;;;;;;7.40;3.90;;;;;;;17.54;70.56;100117.63;123542;1099;104613;-77
2022/06/24 02:21:08;;;;;;;10.77;4.00;;;;;;;17.54;70.53;100109.67;123495;1099;104850;-76
2022/06/24 02:23:40;;;;;;;7.13;4.03;;;;;;;17.56;70.18;100112.32;123531;1099;104319;-77
2022/06/24 02:26:12;;;;;;;10.47;4.30;;;;;;;17.57;70.42;100112.33;123572;1099;104361;-78
2022/06/24 02:28:44;;;;;;;6.73;4.00;;;;;;;17.58;70.19;100118.54;123502;1098;104274;-77
2022/06/24 02:31:16;;;;;;;8.87;3.80;;;;;;;17.60;70.04;100107.02;123569;1099;119751;-77
2022/06/24 02:33:48;;;;;;;8.53;3.77;;;;;;;17.65;70.36;100107.02;123523;1098;104648;-77
2022/06/24 02:36:19;;;;;;;8.07;3.97;;;;;;;17.68;69.99;100111.46;123562;1099;104222;-78
2022/06/24 02:38:51;;;;;;;4.27;3.60;;;;;;;17.71;70.00;100111.46;123496;1098;104345;-78
2022/06/24 02:41:24;;;;;;;7.73;3.80;;;;;;;17.73;70.05;100122.95;123521;1098;104262;-79
2022/06/24 02:43:55;;;;;;;8.70;4.03;;;;;;;17.76;69.76;100118.55;123770;1099;104313;-78
2022/06/24 02:46:27;;;;;;;7.47;3.90;;;;;;;17.81;69.59;100117.64;123759;1099;104197;-78
2022/06/24 02:48:59;;;;;;;7.77;3.90;;;;;;;17.84;69.70;100121.20;123766;1099;104226;-78
2022/06/24 02:51:30;;;;;;;6.00;4.07;;;;;;;17.88;69.16;100115.02;123789;1099;104270;-78
2022/06/24 02:54:02;;;;;;;6.97;3.80;;;;;;;17.91;69.22;100120.33;123758;1099;104830;-78
2022/06/24 02:56:33;;;;;;;6.47;3.63;;;;;;;17.94;68.89;100112.38;123818;1099;104198;-75
2022/06/24 02:59:05;;;;;;;6.03;3.83;;;;;;;18.00;68.84;100118.55;123501;1099;104395;-77
2022/06/24 03:01:36;;;;;;;8.55;4.20;;;;;;;18.03;68.93;100123.86;123478;1099;104284;-78
2022/06/24 03:04:08;;;;;;;10.15;4.00;;;;;;;18.06;68.72;100121.20;123567;1099;104248;-77
2022/06/24 03:06:40;;;;;;;7.97;3.77;;;;;;;18.05;68.63;100115.02;123443;1099;104248;-77
2022/06/24 03:09:11;;;;;;;7.25;4.10;;;;;;;18.07;68.51;100120.33;123252;1099;104373;-78
2022/06/24 03:11:43;;;;;;;6.80;3.60;;;;;;;18.07;68.42;100113.23;123462;1099;104319;-77
2022/06/24 03:14:14;;;;;;;6.57;3.97;;;;;;;18.08;68.83;100117.67;123656;1099;104431;-77
2022/06/24 03:16:46;;;;;;;9.60;4.20;;;;;;;18.11;68.45;100122.10;123553;1099;104236;-77
2022/06/24 03:19:18;;;;;;;7.97;4.23;;;;;;;18.12;68.41;100123.84;123563;1099;104240;-77
2022/06/24 03:21:49;;;;;;;9.00;4.47;;;;;;;18.16;68.08;100120.31;123595;1099;104249;-77
2022/06/24 03:24:21;;;;;;;6.43;3.90;;;;;;;18.19;68.04;100119.44;123455;1099;104382;-77
2022/06/24 03:26:52;;;;;;;11.77;4.20;;;;;;;18.23;67.77;100126.49;123525;1099;104191;-77
2022/06/24 03:29:24;;;;;;;8.40;4.10;;;;;;;18.27;67.68;100129.14;123582;1099;104242;-77
2022/06/24 03:31:56;;;;;;;8.97;3.77;;;;;;;18.31;67.64;100130.91;123571;1099;104315;-78
2022/06/24 03:34:27;;;;;;;6.83;3.80;;;;;;;18.33;67.59;100128.25;123507;1099;104365;-76
2022/06/24 03:36:59;;;;;;;8.20;4.17;;;;;;;18.36;67.64;100128.25;123562;1099;104315;-77
2022/06/24 03:39:31;;;;;;;12.47;3.73;;;;;;;18.42;67.21;100128.23;123382;1099;104903;-77
2022/06/24 03:42:02;;;;;;;11.07;4.50;;;;;;;18.47;67.32;100129.10;123488;1099;104370;-78
2022/06/24 03:44:34;;;;;;;6.67;4.00;;;;;;;18.52;67.48;100134.41;123545;1099;104239;-78
2022/06/24 03:47:06;;;;;;;6.60;3.73;;;;;;;18.54;66.71;100132.62;123420;1099;104415;-77
2022/06/24 03:49:38;;;;;;;7.73;5.03;;;;;;;18.57;67.03;100139.70;123645;1098;104370;-78
2022/06/24 03:52:10;;;;;;;10.03;3.80;;;;;;;18.59;66.52;100137.92;123640;1099;104373;-77
2022/06/24 03:54:43;;;;;;;9.73;4.20;;;;;;;18.61;66.94;100137.03;123614;1099;104364;-76
2022/06/24 03:57:15;;;;;;;7.90;4.05;;;;;;;18.67;66.66;100144.11;123564;1098;104223;-77
2022/06/24 03:59:47;;;;;;;6.30;4.00;;;;;;;18.72;66.48;100142.31;123531;1099;104197;-77
2022/06/24 04:02:21;;;;;;;7.33;3.93;;;;;;;18.78;66.39;100136.98;123576;1099;104277;-77
2022/06/24 04:04:53;;;;;;;9.20;3.90;;;;;;;18.85;66.00;100146.75;123513;1099;104169;-77
2022/06/24 04:07:25;;;;;;;6.53;4.47;;;;;;;18.95;66.08;100152.90;123334;1099;104300;-78
2022/06/24 04:09:56;;;;;;;5.87;3.80;;;;;;;19.03;66.18;100151.08;123618;1099;104243;-77
2022/06/24 04:12:28;;;;;;;6.53;3.80;;;;;;;19.09;66.15;100151.94;123559;1099;105604;-77
2022/06/24 04:15:14;;;;;;;9.33;4.03;;;;;;;19.12;65.57;100158.15;123771;1099;104274;-77
2022/06/24 04:17:47;;;;;;;8.47;3.60;;;;;;;19.16;65.49;100151.90;123680;1099;104261;-78
2022/06/24 04:20:20;;;;;;;12.57;4.27;;;;;;;19.19;65.20;100162.52;123866;1099;104351;-78
2022/06/24 04:22:54;;;;;;;10.20;3.80;;;;;;;19.26;64.95;100157.17;123798;1099;104338;-78
2022/06/24 04:25:26;;;;;;;9.07;3.90;;;;;;;19.32;65.08;100159.80;124033;1099;104342;-77
2022/06/24 04:27:57;;;;;;;10.17;4.97;;;;;;;19.39;65.51;100151.77;123844;1099;104312;-78
2022/06/24 04:30:32;;;;;;;6.47;4.00;;;;;;;19.51;64.36;100150.83;123607;1099;104338;-77
2022/06/24 04:33:03;;;;;;;12.00;4.55;;;;;;;19.64;64.56;100148.95;123495;1099;104322;-76
2022/06/24 04:35:35;;;;;;;10.27;4.00;;;;;;;19.74;63.73;100137.36;123652;1099;104175;-77
2022/06/24 04:38:06;;;;;;;7.57;3.90;;;;;;;19.87;63.62;100142.63;124005;1099;104245;-76
2022/06/24 04:40:38;;;;;;;7.60;3.80;;;;;;;20.03;63.76;100138.91;123885;1099;104160;-77
2022/06/24 04:43:09;;;;;;;8.43;3.77;;;;;;;20.20;62.98;100144.09;123840;1099;104265;-78
2022/06/24 04:45:41;;;;;;;7.50;3.60;;;;;;;20.33;62.86;100141.31;123918;1099;104214;-77
2022/06/24 04:48:14;;;;;;;7.40;3.77;;;;;;;20.37;62.38;100133.27;123935;1099;104168;-77
2022/06/24 04:50:45;;;;;;;8.55;3.50;;;;;;;20.46;62.44;100137.63;123579;1099;104240;-77
2022/06/24 04:53:19;;;;;;;5.00;3.50;;;;;;;20.59;61.20;100138.38;123636;1099;104637;-77
2022/06/24 04:55:50;;;;;;;;;;;;;;;20.67;59.57;100141.86;124127;1099;104376;-78
2022/06/24 04:58:21;;;;;;;7.03;3.97;;;;;;;20.74;60.11;100140.90;124105;1099;104651;-77
2022/06/24 05:00:57;;;;;;;7.40;3.57;;;;;;;20.77;59.48;100148.86;124400;1099;104191;-77
2022/06/24 05:03:32;;;;;;;6.17;3.37;;;;;;;20.78;60.55;100155.94;123695;1099;105412;-79
2022/06/24 05:06:11;;;;;;;8.85;3.40;;;;;;;20.77;57.56;100156.86;124316;1099;104361;-78
2022/06/24 05:08:47;;;;;;;9.77;3.73;;;;;;;20.83;58.72;100158.55;123754;1098;104271;-77
2022/06/24 05:11:21;;;;;;;7.47;3.73;;;;;;;20.90;58.97;100159.38;123858;1099;104315;-78
2022/06/24 05:13:55;;;;;;;8.40;3.75;;;;;;;20.91;58.91;100159.36;124057;1099;104831;-77
2022/06/24 05:16:29;;;;;;;9.20;4.10;;;;;;;20.91;58.59;100167.36;124855;1099;104380;-78
2022/06/24 05:19:03;;;;;;;9.40;3.73;;;;;;;20.93;59.10;100167.34;124527;1099;104240;-75
2022/06/24 05:21:35;;;;;;;8.05;3.30;;;;;;;20.94;57.95;100167.33;124993;1099;102642;-76
2022/06/24 05:24:08;;;;;;;9.70;3.70;;;;;;;21.00;58.48;100169.02;124099;1099;104294;-76
2022/06/24 05:26:43;;;;;;;6.77;3.63;;;;;;;21.14;57.28;100160.84;124320;1099;104296;-77
2022/06/24 05:29:15;;;;;;;8.33;3.80;;;;;;;21.33;57.80;100157.03;124129;1099;104238;-76
2022/06/24 05:31:48;;;;;;;9.17;4.50;;;;;;;21.45;56.76;100149.75;124408;1099;104354;-75
2022/06/24 05:34:20;;;;;;;7.53;3.60;;;;;;;21.48;56.31;100155.04;124463;1099;104172;-77
2022/06/24 05:36:54;;;;;;;8.33;3.70;;;;;;;21.60;56.53;100151.32;124683;1099;104160;-77
2022/06/24 05:39:41;;;;;;;;;;;;;;;21.69;55.16;100159.19;125845;1098;104233;-76
2022/06/24 05:42:14;;;;;;;6.20;3.57;;;;;;;21.75;55.57;100155.55;125570;1099;104261;-75
2022/06/24 05:44:59;;;;;;;14.13;3.75;;;;;;;21.82;55.89;100166.11;125813;1099;104153;-78
2022/06/24 05:47:37;;;;;;;10.13;3.70;;;;;;;21.87;56.08;100155.36;125941;1099;104169;-77
2022/06/24 05:50:12;;;;;;;10.57;4.07;;;;;;;22.01;56.22;100160.48;125155;1099;104242;-76
2022/06/24 05:55:46;;;;;;;9.13;3.60;;;;;;;22.27;54.65;100165.38;125725;1099;118519;-79
2022/06/24 05:58:24;;;;;;;8.57;3.90;;;;;;;22.29;54.50;100163.55;126131;1098;104194;-79
2022/06/24 06:01:05;;;;;;;6.43;3.73;;;;;;;22.40;54.18;100168.73;125888;1098;105160;-76
2022/06/24 06:03:46;;;;;;;4.93;3.50;;;;;;;22.45;53.97;100169.52;125881;1099;102248;-78
2022/06/24 06:06:31;;;;;;;6.50;3.63;;;;;;;22.45;53.68;100164.17;126088;1099;104316;-78
2022/06/24 06:09:11;;;;;;;14.13;4.10;;;;;;;22.49;54.15;100160.55;125533;1099;102804;-78
2022/06/24 06:11:47;;;;;;;8.57;3.97;;;;;;;22.53;53.48;100164.03;126322;1099;102858;-78
2022/06/24 06:14:21;;;;;;;7.70;3.37;;;;;;;22.54;52.15;100174.70;125453;1099;103357;-77
2022/06/24 06:16:56;;;;;;;8.80;4.03;;;;;;;22.50;52.94;100167.66;126103;1099;104207;-78
2022/06/24 06:19:44;;;;;;;;;;;;;;;;;;;;;
2022/06/24 06:22:22;;;;;;;8.27;4.07;;;;;;;22.54;53.26;100166.67;124840;1099;102297;-80
2022/06/24 06:24:59;;;;;;;10.20;3.80;;;;;;;22.57;52.54;100163.94;125826;1099;105765;-78
2022/06/24 06:27:36;;;;;;;8.07;3.60;;;;;;;22.53;53.03;100167.61;125629;1099;104188;-80
2022/06/24 06:30:24;;;;;;;8.10;3.63;;;;;;;22.52;52.56;100171.18;125400;1099;103971;-81
2022/06/24 06:33:07;;;;;;;7.00;3.60;;;;;;;22.49;52.30;100160.55;125802;1099;102507;-78
2022/06/24 06:35:42;;;;;;;5.47;3.83;;;;;;;22.46;52.38;100176.64;125023;1099;107737;-78
2022/06/24 06:38:17;;;;;;;7.13;3.67;;;;;;;22.40;53.06;100166.93;124837;1098;104303;-77
2022/06/24 06:40:57;;;;;;;7.43;3.50;;;;;;;22.37;52.27;100175.00;124950;1099;104261;-79
2022/06/24 06:43:34;;;;;;;5.87;3.70;;;;;;;22.46;52.98;100159.73;125561;1099;104165;-78
2022/06/24 06:46:12;;;;;;;7.07;3.80;;;;;;;22.55;51.77;100168.45;125760;1099;102948;-77
2022/06/24 06:49:05;;;;;;;6.50;3.60;;;;;;;22.75;51.98;100159.14;125673;1099;104162;-77
2022/06/24 06:51:52;;;;;;;5.13;3.40;;;;;;;23.00;51.21;100162.22;125422;1099;101755;-77
2022/06/24 06:54:30;;;;;;;7.53;3.70;;;;;;;23.10;50.78;100152.23;125730;1098;104146;-78
2022/06/24 06:57:03;;;;;;;7.97;4.10;;;;;;;23.21;50.29;100143.97;126007;1099;103021;-79
2022/06/24 06:59:38;;;;;;;6.40;3.80;;;;;;;23.33;50.71;100144.56;125330;1099;103272;-75
2022/06/24 07:02:28;;;;;;;6.37;3.57;;;;;;;23.45;49.90;100150.55;125647;1099;104153;-77
2022/06/24 07:05:02;;;;;;;7.27;3.50;;;;;;;23.50;49.24;100144.19;125389;1099;104899;-78
2022/06/24 07:07:47;;;;;;;5.93;3.77;;;;;;;23.56;50.01;100137.81;124758;1099;104207;-79
2022/06/24 07:10:31;;;;;;;7.00;3.60;;;;;;;23.72;50.19;100141.00;125431;1099;104175;-78
2022/06/24 07:13:16;;;;;;;;;;;;;;;;;;;;;
2022/06/24 07:15:59;;;;;;;6.47;3.53;;;;;;;24.05;48.74;100144.66;125441;1099;104120;-79
2022/06/24 07:18:39;;;;;;;5.17;3.60;;;;;;;24.13;48.45;100146.27;126150;1099;103494;-79
2022/06/24 07:21:24;;;;;;;8.53;3.83;;;;;;;24.23;47.55;100151.35;126532;1099;103687;-78
2022/06/24 07:24:01;;;;;;;;;;;;;;;24.27;47.42;100154.83;126223;1098;106334;-78
2022/06/24 07:26:33;;;;;;;7.67;3.77;;;;;;;24.28;47.72;100139.61;126772;1099;102701;-77
2022/06/24 07:29:08;;;;;;;9.57;3.57;;;;;;;24.25;47.00;100135.23;125749;1099;103595;-79
2022/06/24 07:31:47;;;;;;;8.00;3.73;;;;;;;24.34;47.68;100134.98;125452;1099;103754;-77
2022/06/24 07:34:31;;;;;;;7.03;3.30;;;;;;;24.56;47.41;100142.45;125629;1102;104178;-78
2022/06/24 07:40:23;;;;;;;13.57;3.90;;;;;;;24.71;47.59;100150.09;125882;1099;104150;-77
2022/06/24 07:43:12;;;;;;;10.77;4.03;;;;;;;24.71;47.06;100135.78;126125;1099;104172;-80
2022/06/24 07:46:12;;;;;;;;;;;;;;;;;;;;;
2022/06/24 07:49:12;;;;;;;8.37;3.73;;;;;;;24.74;46.53;100144.65;125532;1099;104258;-80
2022/06/24 07:52:16;;;;;;;7.30;3.70;;;;;;;24.66;46.21;100148.45;125392;1102;104152;-79
2022/06/24 07:58:05;;;;;;;9.47;3.70;;;;;;;24.51;46.12;100141.67;125839;1102;104663;-80
2022/06/24 08:00:51;;;;;;;9.50;4.03;;;;;;;24.53;46.38;100134.48;125753;1103;102100;-79
2022/06/24 08:03:38;;;;;;;7.10;3.93;;;;;;;24.58;46.54;100141.49;125085;1105;102478;-79
2022/06/24 08:07:07;;;;;;;;;;;;;;;;;;;;;
2022/06/24 08:14:01;;;;;;;5.10;3.60;;;;;;;24.99;45.83;100138.53;125566;1102;104281;-78
2022/06/24 08:16:46;;;;;;;6.20;3.60;;;;;;;24.96;45.39;100133.26;125230;1102;103264;-79
2022/06/24 08:19:44;;;;;;;8.73;3.80;;;;;;;25.01;45.48;100136.71;125396;1106;104274;-78
2022/06/24 08:22:28;;;;;;;12.00;3.60;;;;;;;25.03;45.27;100139.34;125569;1102;103007;-77
2022/06/24 08:25:19;;;;;;;8.50;3.93;;;;;;;25.04;45.56;100144.67;125106;1102;108793;-75
2022/06/24 08:28:17;;;;;;;11.83;3.90;;;;;;;24.91;44.23;100130.71;124926;1102;104076;-75
2022/06/24 08:31:05;;;;;;;11.88;3.70;;;;;;;24.76;44.71;100126.69;124981;1102;104227;-77
2022/06/24 08:34:15;;;;;;;6.20;3.90;;;;;;;24.85;44.76;100135.39;126025;1105;102801;-76
2022/06/24 08:37:30;;;;;;;11.73;3.87;;;;;;;24.80;44.18;100143.57;125350;1102;102284;-79
2022/06/24 08:40:40;;;;;;;7.77;3.83;;;;;;;24.86;43.30;100137.16;125382;1102;103057;-77
2022/06/24 08:43:41;;;;;;;;;;;;;;;;;;;;;
2022/06/24 08:46:23;;;;;;;8.73;3.50;;;;;;;25.14;43.43;100114.87;124889;1105;102375;-78
2022/06/24 08:52:19;;;;;;;9.97;3.77;;;;;;;24.91;42.41;100132.52;125233;1103;104076;-80
2022/06/24 09:01:38;;;;;;;5.97;3.73;;;;;;;25.04;42.53;100128.56;125988;1102;102555;-77
2022/06/24 09:04:28;;;;;;;8.73;3.50;;;;;;;25.03;41.76;100150.95;125319;1105;102678;-76
2022/06/24 09:07:32;;;;;;;10.40;4.10;;;;;;;25.13;42.04;100138.13;125253;1102;104162;-77
2022/06/24 09:10:15;;;;;;;10.43;4.17;;;;;;;25.31;42.15;100123.30;124251;1105;105783;-77
2022/06/24 09:13:13;;;;;;;7.60;3.83;;;;;;;25.60;42.53;100114.32;125177;1102;103652;-77
2022/06/24 09:16:15;;;;;;;9.87;3.70;;;;;;;25.74;41.54;100115.66;124006;1102;109363;-76
2022/06/24 09:19:20;;;;;;;5.30;3.67;;;;;;;25.91;41.91;100121.34;125182;1102;103313;-77
2022/06/24 09:22:13;;;;;;;8.23;3.97;;;;;;;26.23;41.93;100110.47;124969;1102;104404;-78
2022/06/24 09:25:38;;;;;;;10.63;3.92;;;;;;;26.52;41.60;100110.29;125205;1102;104053;-80
2022/06/24 09:28:23;;;;;;;9.40;3.80;;;;;;;26.64;41.98;100121.53;125209;1102;104310;-78
2022/06/24 09:31:08;;;;;;;7.37;3.97;;;;;;;26.58;40.34;100105.61;124969;1102;103813;-77
2022/06/24 09:37:38;;;;;;;8.93;3.97;;;;;;;25.94;41.56;100112.30;125440;1102;117776;-78
2022/06/24 09:40:44;;;;;;;7.13;3.80;;;;;;;25.75;41.00;100112.92;124517;1102;103692;-77
2022/06/24 09:43:22;;;;;;;7.57;3.70;;;;;;;25.61;40.96;100104.45;124730;1102;102821;-80
2022/06/24 09:46:17;;;;;;;7.97;3.83;;;;;;;25.59;41.34;100106.31;125372;1106;102023;-78
2022/06/24 09:49:05;;;;;;;8.27;4.20;;;;;;;25.73;41.58;100106.73;124361;1105;104499;-77
2022/06/24 09:51:47;;;;;;;8.17;3.60;;;;;;;25.71;40.34;100111.28;125267;1102;103089;-77
2022/06/24 09:54:31;;;;;;;6.13;3.50;;;;;;;25.69;40.05;100107.75;125283;1105;104159;-79
2022/06/24 09:57:18;;;;;;;6.33;3.60;;;;;;;25.67;40.45;100109.62;125272;1102;104297;-78
2022/06/24 10:02:55;;;;;;;5.20;3.50;;;;;;;25.59;40.56;100106.31;124809;1102;104217;-79
2022/06/24 10:05:41;;;;;;;10.63;3.80;;;;;;;25.48;40.48;100104.84;125415;1105;102372;-78
2022/06/24 10:08:24;;;;;;;7.77;3.50;;;;;;;25.45;40.47;100109.45;125467;1102;102802;-77
2022/06/24 10:10:57;;;;;;;10.13;4.10;;;;;;;25.41;40.88;100097.90;125388;1105;102788;-78
2022/06/24 10:13:39;;;;;;;6.03;3.43;;;;;;;25.36;40.87;100088.25;125281;1102;104233;-78
2022/06/24 10:16:11;;;;;;;7.40;3.60;;;;;;;25.27;40.95;100089.38;124489;1102;103026;-79
2022/06/24 10:19:12;;;;;;;5.55;3.25;;;;;;;25.12;40.37;100104.17;125045;1105;103608;-77
2022/06/24 10:21:55;;;;;;;8.90;3.60;;;;;;;25.03;40.51;100110.69;125424;1105;103126;-77
2022/06/24 10:24:59;;;;;;;8.67;4.03;;;;;;;25.03;40.96;100097.27;125534;1103;102991;-77
2022/06/24 10:28:22;;;;;;;7.03;3.77;;;;;;;25.11;40.28;100087.17;125294;1105;104309;-78
2022/06/24 10:31:25;;;;;;;7.30;3.70;;;;;;;25.28;40.19;100086.67;125246;1105;104281;-76
2022/06/24 10:34:10;;;;;;;5.93;3.67;;;;;;;25.50;40.74;100080.62;124539;1105;104389;-77
2022/06/24 10:36:56;;;;;;;9.90;3.90;;;;;;;25.80;40.19;100089.48;125880;1105;102202;-79
2022/06/24 10:40:05;;;;;;;9.67;3.77;;;;;;;26.05;39.99;100088.64;125722;1105;102926;-75
2022/06/24 10:43:13;;;;;;;9.90;3.70;;;;;;;26.15;40.35;100073.95;125870;1105;102002;-79
2022/06/24 10:46:21;;;;;;;6.40;3.33;;;;;;;26.18;39.76;100075.67;125557;1105;102701;-77
2022/06/24 10:49:16;;;;;;;10.70;3.50;;;;;;;26.22;39.55;100073.73;125197;1105;120764;-79
2022/06/24 10:51:53;;;;;;;6.83;3.70;;;;;;;26.30;39.41;100074.33;124962;1105;102220;-78
2022/06/24 10:54:33;;;;;;;4.95;3.45;;;;;;;26.28;38.93;100058.25;125271;1105;104114;-78
2022/06/24 10:57:09;;;;;;;8.03;3.60;;;;;;;26.39;39.11;100052.48;125085;1105;104523;-78
2022/06/24 11:00:02;;;;;;;5.70;3.30;;;;;;;26.57;39.50;100053.63;125360;1103;102989;-80
2022/06/24 11:02:45;;;;;;;8.33;3.40;;;;;;;26.77;38.60;100074.43;125293;1102;103816;-80
2022/06/24 11:05:51;;;;;;;7.93;3.57;;;;;;;26.91;38.88;100049.64;124447;1103;104173;-80
2022/06/24 11:08:49;;;;;;;7.37;3.40;;;;;;;27.07;37.72;100053.50;125262;1102;102971;-78
2022/06/24 11:12:06;;;;;;;5.30;3.93;;;;;;;27.29;37.37;100049.08;125255;1102;104041;-78
2022/06/24 11:15:08;;;;;;;;;;;;;;;;;;;;;
2022/06/24 11:17:57;;;;;;;7.27;3.47;;;;;;;27.44;35.63;100048.45;125260;1102;102800;-80
2022/06/24 11:20:42;;;;;;;4.57;3.40;;;;;;;27.53;36.56;100048.06;125324;1102;105116;-80
2022/06/24 11:26:48;;;;;;;7.50;3.50;;;;;;;27.62;35.79;100044.98;125542;1102;103244;-80
2022/06/24 11:29:22;;;;;;;7.10;3.50;;;;;;;27.42;34.56;100036.87;125476;1102;102694;-78
2022/06/24 11:32:02;;;;;;;8.63;3.20;;;;;;;27.43;35.57;100034.11;126554;1101;102430;-80
2022/06/24 11:34:44;;;;;;;7.10;3.50;;;;;;;27.42;35.52;100034.17;125907;1102;102366;-78
2022/06/24 11:37:32;;;;;;;10.05;3.20;;;;;;;27.63;35.73;100040.50;126022;1099;102896;-80
2022/06/24 11:40:22;;;;;;;9.37;3.47;;;;;;;27.79;35.07;100024.53;125895;1099;104265;-79
2022/06/24 11:43:09;;;;;;;6.53;2.90;;;;;;;27.96;34.86;100046.27;126023;1098;104303;-83
2022/06/24 11:46:00;;;;;;;6.57;3.30;;;;;;;27.91;35.00;100028.53;126247;1098;104216;-78
2022/06/24 11:49:12;;;;;;;7.63;3.40;;;;;;;27.85;35.36;100043.14;125979;1099;102851;-83
2022/06/24 11:52:29;;;;;;;6.83;3.27;;;;;;;28.02;35.41;100031.66;126023;1099;103518;-79
2022/06/24 11:55:37;;;;;;;6.93;3.20;;;;;;;28.01;34.92;100039.81;126034;1099;104243;-76
2022/06/24 11:58:29;;;;;;;6.83;3.10;;;;;;;27.59;34.43;100042.42;125073;1099;104225;-78
2022/06/24 12:01:25;;;;;;;10.87;3.50;;;;;;;27.48;35.02;100036.61;124853;1099;104410;-79
2022/06/24 12:04:07;;;;;;;4.37;3.30;;;;;;;27.49;35.13;100035.69;125073;1099;104325;-77
2022/06/24 12:06:53;;;;;;;6.63;3.30;;;;;;;27.50;35.34;100042.80;124592;1099;104338;-79
2022/06/24 12:09:27;;;;;;;5.00;3.30;;;;;;;27.51;34.98;100044.57;125127;1099;102819;-77
2022/06/24 12:12:33;;;;;;;5.30;3.70;;;;;;;27.44;34.81;100041.27;124958;1099;104233;-77
2022/06/24 12:15:25;;;;;;;6.93;3.47;;;;;;;27.43;34.93;100035.94;125876;1099;104715;-78
2022/06/24 12:18:13;;;;;;;5.78;3.08;;;;;;;27.38;35.16;100027.19;126342;1099;102342;-78
2022/06/24 12:21:10;;;;;;;7.30;3.47;;;;;;;27.35;35.29;100048.86;125203;1099;104147;-80
2022/06/24 12:23:53;;;;;;;5.20;3.10;;;;;;;27.31;35.24;100039.11;126297;1098;102228;-80
2022/06/24 12:26:30;;;;;;;5.53;3.40;;;;;;;27.26;34.97;100041.98;125977;1099;104206;-78
2022/06/24 12:29:25;;;;;;;5.60;2.90;;;;;;;27.23;35.80;100036.72;125021;1099;104301;-79
2022/06/24 12:32:07;;;;;;;8.87;3.40;;;;;;;27.33;35.09;100053.41;125942;1099;104319;-76
2022/06/24 12:34:42;;;;;;;8.27;3.70;;;;;;;27.28;35.75;100040.09;125926;1098;104214;-76
2022/06/24 12:37:51;;;;;;;;;;;;;;;;;;;;;
2022/06/24 12:40:58;;;;;;;6.03;3.43;;;;;;;27.25;35.55;100033.05;125424;1099;103618;-80
2022/06/24 12:43:57;;;;;;;7.40;3.67;;;;;;;27.26;35.59;100034.77;125374;1102;103197;-82
2022/06/24 12:53:14;;;;;;;6.53;3.40;;;;;;;27.35;35.68;100038.09;124366;1099;109064;-82
2022/06/24 12:56:15;;;;;;;;;;;;;;;;;;;;;
2022/06/24 12:59:30;;;;;;;5.57;3.20;;;;;;;27.11;35.65;100046.16;125525;1099;104693;-80
2022/06/24 13:02:18;;;;;;;5.43;3.20;;;;;;;27.06;35.85;100040.96;125740;1098;104230;-80
2022/06/24 13:05:32;;;;;;;;;;;;;;;;;;;;;
2022/06/24 13:08:22;;;;;;;9.78;3.60;;;;;;;27.09;36.05;100031.89;125259;1099;102658;-79